www.cux-wetter.de
Wetterdaten: Woche 19.10.15 - 25.10.15 (KW43)
Datum Zeit Temp. A. Feuchte A. Luftdruck Regen Wind Richtung Sonnenschein Solar Taupunkt Windchill Windben
19.10.2015 00:00 10,6 C 98 % 1019,0 hPa 0,0 l/m 3,2 km/h (1 Bft) N-NO 0,00 h 0 W/m 10,4 C 10,6 C 7,8 km/h (2 Bft)
19.10.2015 01:00 10,6 C 99 % 1019,0 hPa 0,0 l/m 3,3 km/h (1 Bft) N 0,00 h 0 W/m 10,4 C 10,6 C 8,5 km/h (2 Bft)
19.10.2015 02:00 10,5 C 99 % 1019,0 hPa 0,0 l/m 4,1 km/h (1 Bft) N 0,00 h 0 W/m 10,3 C 10,5 C 9,6 km/h (2 Bft)
19.10.2015 03:00 10,4 C 98 % 1019,2 hPa 0,0 l/m 3,8 km/h (1 Bft) N 0,00 h 0 W/m 10,1 C 10,4 C 9,3 km/h (2 Bft)
19.10.2015 04:00 10,3 C 98 % 1019,4 hPa 0,0 l/m 3,7 km/h (1 Bft) N-NO 0,00 h 0 W/m 10,0 C 10,3 C 8,3 km/h (2 Bft)
19.10.2015 05:00 10,2 C 98 % 1019,8 hPa 0,2 l/m 3,7 km/h (1 Bft) N 0,00 h 0 W/m 9,9 C 10,2 C 9,6 km/h (2 Bft)
19.10.2015 06:00 10,0 C 97 % 1020,0 hPa 0,0 l/m 4,0 km/h (1 Bft) N 0,00 h 0 W/m 9,5 C 10,0 C 8,4 km/h (2 Bft)
19.10.2015 07:00 9,4 C 97 % 1020,0 hPa 0,0 l/m 5,0 km/h (1 Bft) N 0,00 h 0 W/m 8,9 C 9,3 C 10,9 km/h (2 Bft)
19.10.2015 08:00 9,1 C 96 % 1020,5 hPa 0,0 l/m 3,5 km/h (1 Bft) N-NW 0,05 h 17 W/m 8,5 C 9,1 C 8,3 km/h (2 Bft)
19.10.2015 09:00 9,0 C 95 % 1021,0 hPa 0,0 l/m 3,1 km/h (1 Bft) N-NW 0,00 h 40 W/m 8,2 C 9,0 C 7,7 km/h (2 Bft)
19.10.2015 10:00 9,7 C 93 % 1021,5 hPa 0,0 l/m 3,9 km/h (1 Bft) N 0,30 h 114 W/m 8,7 C 9,7 C 9,4 km/h (2 Bft)
19.10.2015 11:00 10,6 C 90 % 1021,6 hPa 0,0 l/m 3,8 km/h (1 Bft) N 1,00 h 234 W/m 9,1 C 10,6 C 8,0 km/h (2 Bft)
19.10.2015 12:00 11,5 C 87 % 1021,6 hPa 0,0 l/m 2,4 km/h (1 Bft) N 0,80 h 248 W/m 9,5 C 11,5 C 5,6 km/h (2 Bft)
19.10.2015 13:00 10,8 C 90 % 1021,5 hPa 0,0 l/m 1,3 km/h (1 Bft) N 0,00 h 89 W/m 9,2 C 10,8 C 3,4 km/h (1 Bft)
19.10.2015 14:00 11,2 C 89 % 1021,3 hPa 0,0 l/m 1,3 km/h (1 Bft) N 0,00 h 116 W/m 9,5 C 11,2 C 3,7 km/h (1 Bft)
19.10.2015 15:00 11,1 C 89 % 1021,1 hPa 0,0 l/m 2,6 km/h (1 Bft) N-NW 0,00 h 84 W/m 9,3 C 11,1 C 5,3 km/h (1 Bft)
19.10.2015 16:00 11,0 C 87 % 1021,2 hPa 0,0 l/m 3,4 km/h (1 Bft) N-NW 0,00 h 66 W/m 9,0 C 11,0 C 6,9 km/h (2 Bft)
19.10.2015 17:00 10,1 C 89 % 1021,3 hPa 0,0 l/m 2,3 km/h (1 Bft) N-NW 0,00 h 29 W/m 8,4 C 10,1 C 5,0 km/h (1 Bft)
19.10.2015 18:00 8,4 C 95 % 1021,1 hPa 0,0 l/m 0,1 km/h (0 Bft) N 0,00 h 8 W/m 7,6 C 8,4 C 0,9 km/h (0 Bft)
19.10.2015 19:00 7,2 C 96 % 1021,2 hPa 0,0 l/m 0,2 km/h (0 Bft) N 0,00 h 0 W/m 6,6 C 7,2 C 1,0 km/h (0 Bft)
19.10.2015 20:00 6,0 C 97 % 1021,6 hPa 0,0 l/m 0,5 km/h (0 Bft) N-NW 0,00 h 0 W/m 5,5 C 6,0 C 1,5 km/h (1 Bft)
19.10.2015 21:00 5,6 C 97 % 1021,7 hPa 0,0 l/m 0,1 km/h (0 Bft) N 0,00 h 0 W/m 5,1 C 5,6 C 0,6 km/h (0 Bft)
19.10.2015 22:00 5,2 C 97 % 1021,8 hPa 0,0 l/m 0,4 km/h (0 Bft) N 0,00 h 0 W/m 4,9 C 5,2 C 1,5 km/h (1 Bft)
19.10.2015 23:00 4,5 C 97 % 1021,8 hPa 0,0 l/m 0,6 km/h (0 Bft) N 0,00 h 0 W/m 4,1 C 4,5 C 1,7 km/h (1 Bft)
20.10.2015 00:00 5,1 C 98 % 1021,6 hPa 0,0 l/m 0,4 km/h (0 Bft) N 0,00 h 0 W/m 4,8 C 5,1 C 1,5 km/h (1 Bft)
20.10.2015 01:00 4,7 C 98 % 1021,4 hPa 0,0 l/m 0,3 km/h (0 Bft) N 0,00 h 0 W/m 4,4 C 4,7 C 1,0 km/h (0 Bft)
20.10.2015 02:00 4,0 C 98 % 1021,3 hPa 0,0 l/m 0,0 km/h (0 Bft) N 0,00 h 0 W/m 3,7 C 4,0 C 0,4 km/h (0 Bft)
20.10.2015 03:00 4,0 C 98 % 1021,4 hPa 0,0 l/m 0,3 km/h (0 Bft) N 0,00 h 0 W/m 3,8 C 4,0 C 1,0 km/h (0 Bft)
20.10.2015 04:00 5,1 C 99 % 1021,2 hPa 0,0 l/m 0,1 km/h (0 Bft) N 0,00 h 0 W/m 5,0 C 5,1 C 0,7 km/h (0 Bft)
20.10.2015 05:00 5,4 C 99 % 1021,1 hPa 0,0 l/m 0,2 km/h (0 Bft) N 0,00 h 0 W/m 5,3 C 5,4 C 1,0 km/h (0 Bft)
20.10.2015 06:00 5,2 C 99 % 1021,0 hPa 0,0 l/m 0,3 km/h (0 Bft) N 0,00 h 0 W/m 5,0 C 5,2 C 1,1 km/h (1 Bft)
20.10.2015 07:00 4,2 C 98 % 1021,0 hPa 0,0 l/m 0,3 km/h (0 Bft) N 0,00 h 0 W/m 3,9 C 4,2 C 1,1 km/h (1 Bft)
20.10.2015 08:00 3,6 C 99 % 1021,1 hPa 0,0 l/m 0,3 km/h (0 Bft) N 0,00 h 16 W/m 3,5 C 3,6 C 1,0 km/h (0 Bft)
20.10.2015 09:00 5,1 C 99 % 1021,3 hPa 0,0 l/m 0,3 km/h (0 Bft) N 0,15 h 65 W/m 4,9 C 5,1 C 0,8 km/h (0 Bft)
20.10.2015 10:00 7,9 C 99 % 1021,5 hPa 0,0 l/m 0,3 km/h (0 Bft) N 0,20 h 89 W/m 7,7 C 7,9 C 1,7 km/h (1 Bft)
20.10.2015 11:00 10,2 C 95 % 1021,6 hPa 0,0 l/m 1,5 km/h (1 Bft) N 0,95 h 272 W/m 9,4 C 10,2 C 3,8 km/h (1 Bft)
20.10.2015 12:00 11,0 C 89 % 1021,6 hPa 0,0 l/m 3,3 km/h (1 Bft) N-NW 0,30 h 182 W/m 9,2 C 10,9 C 6,9 km/h (2 Bft)
20.10.2015 13:00 11,3 C 86 % 1021,4 hPa 0,0 l/m 3,0 km/h (1 Bft) N-NW 0,15 h 201 W/m 9,1 C 11,3 C 5,8 km/h (2 Bft)
20.10.2015 14:00 11,5 C 86 % 1021,2 hPa 0,0 l/m 4,2 km/h (1 Bft) NW 0,00 h 158 W/m 9,3 C 11,5 C 8,5 km/h (2 Bft)
20.10.2015 15:00 11,5 C 87 % 1021,2 hPa 0,0 l/m 4,0 km/h (1 Bft) W 0,00 h 92 W/m 9,5 C 11,5 C 9,4 km/h (2 Bft)
20.10.2015 16:00 11,2 C 90 % 1021,2 hPa 0,0 l/m 3,8 km/h (1 Bft) W 0,00 h 49 W/m 9,6 C 11,2 C 8,0 km/h (2 Bft)
20.10.2015 17:00 11,2 C 90 % 1021,2 hPa 0,0 l/m 3,2 km/h (1 Bft) N-NW 0,05 h 33 W/m 9,5 C 11,2 C 6,8 km/h (2 Bft)
20.10.2015 18:00 10,6 C 91 % 1021,5 hPa 0,0 l/m 3,1 km/h (1 Bft) N-NW 0,00 h 5 W/m 9,2 C 10,6 C 6,2 km/h (2 Bft)
20.10.2015 19:00 10,5 C 91 % 1021,5 hPa 0,0 l/m 4,6 km/h (1 Bft) N 0,00 h 0 W/m 9,1 C 10,2 C 8,8 km/h (2 Bft)
20.10.2015 20:00 9,9 C 94 % 1021,4 hPa 0,0 l/m 0,7 km/h (0 Bft) N-NW 0,00 h 0 W/m 9,1 C 9,9 C 2,3 km/h (1 Bft)
20.10.2015 21:00 9,3 C 96 % 1021,2 hPa 0,0 l/m 0,2 km/h (0 Bft) N 0,00 h 0 W/m 8,7 C 9,3 C 0,9 km/h (0 Bft)
20.10.2015 22:00 9,4 C 96 % 1021,1 hPa 0,0 l/m 1,5 km/h (1 Bft) W 0,00 h 0 W/m 8,8 C 9,4 C 3,5 km/h (1 Bft)
20.10.2015 23:00 8,6 C 96 % 1020,8 hPa 0,0 l/m 1,6 km/h (1 Bft) W 0,00 h 0 W/m 8,0 C 8,6 C 3,0 km/h (1 Bft)
21.10.2015 00:00 8,0 C 97 % 1020,8 hPa 0,0 l/m 1,5 km/h (1 Bft) W 0,00 h 0 W/m 7,5 C 8,0 C 3,2 km/h (1 Bft)
21.10.2015 01:00 8,4 C 97 % 1020,6 hPa 0,0 l/m 2,3 km/h (1 Bft) W-SW 0,00 h 0 W/m 8,0 C 8,4 C 3,9 km/h (1 Bft)
21.10.2015 02:00 9,3 C 97 % 1020,2 hPa 0,0 l/m 4,7 km/h (1 Bft) W-SW 0,00 h 0 W/m 8,8 C 9,0 C 8,8 km/h (2 Bft)
21.10.2015 03:00 9,9 C 94 % 1019,8 hPa 0,0 l/m 4,2 km/h (1 Bft) W-SW 0,00 h 0 W/m 9,0 C 9,8 C 8,5 km/h (2 Bft)
21.10.2015 04:00 9,6 C 94 % 1019,3 hPa 0,0 l/m 3,3 km/h (1 Bft) SW 0,00 h 0 W/m 8,8 C 9,6 C 5,6 km/h (2 Bft)
21.10.2015 05:00 9,6 C 96 % 1018,8 hPa 0,0 l/m 3,8 km/h (1 Bft) SW 0,00 h 0 W/m 8,9 C 9,6 C 6,1 km/h (2 Bft)
21.10.2015 06:00 9,1 C 96 % 1018,1 hPa 0,0 l/m 2,2 km/h (1 Bft) S-SW 0,00 h 0 W/m 8,5 C 9,1 C 4,0 km/h (1 Bft)
21.10.2015 07:00 9,1 C 97 % 1017,6 hPa 0,0 l/m 5,8 km/h (2 Bft) S-SW 0,00 h 5 W/m 8,6 C 9,0 C 9,8 km/h (2 Bft)
21.10.2015 08:00 8,4 C 97 % 1017,5 hPa 0,0 l/m 4,1 km/h (1 Bft) S 0,00 h 19 W/m 8,0 C 8,4 C 7,5 km/h (2 Bft)
21.10.2015 09:00 8,7 C 97 % 1017,3 hPa 0,0 l/m 5,9 km/h (2 Bft) S-SW 0,00 h 57 W/m 8,3 C 8,4 C 10,8 km/h (2 Bft)
21.10.2015 10:00 9,5 C 96 % 1017,2 hPa 0,0 l/m 7,4 km/h (2 Bft) SW 0,00 h 100 W/m 8,9 C 8,7 C 13,3 km/h (3 Bft)
21.10.2015 11:00 10,6 C 93 % 1016,9 hPa 0,0 l/m 10,4 km/h (2 Bft) S-SW 0,20 h 143 W/m 9,5 C 8,1 C 17,3 km/h (3 Bft)
21.10.2015 12:00 10,8 C 92 % 1016,5 hPa 0,0 l/m 10,2 km/h (2 Bft) SW 0,00 h 119 W/m 9,6 C 8,4 C 17,9 km/h (3 Bft)
21.10.2015 13:00 11,2 C 91 % 1016,0 hPa 0,0 l/m 10,8 km/h (2 Bft) S-SW 0,00 h 106 W/m 9,7 C 8,5 C 19,1 km/h (3 Bft)
21.10.2015 14:00 11,7 C 89 % 1015,3 hPa 0,0 l/m 11,2 km/h (2 Bft) S 0,00 h 120 W/m 9,9 C 8,9 C 19,7 km/h (3 Bft)
21.10.2015 15:00 12,1 C 87 % 1014,7 hPa 0,0 l/m 10,8 km/h (2 Bft) S-SW 0,00 h 103 W/m 9,9 C 9,5 C 19,0 km/h (3 Bft)
21.10.2015 16:00 11,9 C 85 % 1014,3 hPa 0,0 l/m 10,2 km/h (2 Bft) SW 0,00 h 54 W/m 9,5 C 9,7 C 18,1 km/h (3 Bft)
21.10.2015 17:00 11,6 C 86 % 1014,1 hPa 0,0 l/m 9,9 km/h (2 Bft) S-SW 0,00 h 26 W/m 9,5 C 9,5 C 17,7 km/h (3 Bft)
21.10.2015 18:00 11,3 C 88 % 1013,6 hPa 0,0 l/m 10,2 km/h (2 Bft) S-SW 0,00 h 6 W/m 9,3 C 8,9 C 17,9 km/h (3 Bft)
21.10.2015 19:00 11,1 C 89 % 1013,3 hPa 0,0 l/m 10,7 km/h (2 Bft) SW 0,00 h 0 W/m 9,3 C 8,5 C 19,3 km/h (3 Bft)
21.10.2015 20:00 11,1 C 90 % 1012,9 hPa 0,0 l/m 12,3 km/h (2 Bft) SW 0,00 h 0 W/m 9,4 C 7,7 C 21,1 km/h (4 Bft)
21.10.2015 21:00 11,0 C 90 % 1012,7 hPa 0,0 l/m 13,7 km/h (3 Bft) SW 0,00 h 0 W/m 9,4 C 6,9 C 27,0 km/h (4 Bft)
21.10.2015 22:00 10,9 C 91 % 1012,4 hPa 0,0 l/m 12,1 km/h (2 Bft) SW 0,00 h 0 W/m 9,4 C 7,5 C 25,3 km/h (4 Bft)
21.10.2015 23:00 10,8 C 92 % 1011,7 hPa 0,0 l/m 12,2 km/h (2 Bft) S 0,00 h 0 W/m 9,5 C 7,3 C 20,6 km/h (4 Bft)
22.10.2015 00:00 10,5 C 95 % 1011,3 hPa 0,0 l/m 10,0 km/h (2 Bft) S-SW 0,00 h 0 W/m 9,6 C 8,2 C 18,0 km/h (3 Bft)
22.10.2015 01:00 10,2 C 96 % 1010,9 hPa 0,2 l/m 11,0 km/h (2 Bft) SW 0,00 h 0 W/m 9,7 C 7,3 C 19,5 km/h (3 Bft)
22.10.2015 02:00 10,2 C 97 % 1010,4 hPa 0,0 l/m 11,9 km/h (2 Bft) S-SW 0,00 h 0 W/m 9,8 C 6,8 C 20,3 km/h (4 Bft)
22.10.2015 03:00 10,3 C 97 % 1010,0 hPa 0,0 l/m 11,9 km/h (2 Bft) S-SW 0,00 h 0 W/m 9,9 C 7,0 C 19,4 km/h (3 Bft)
22.10.2015 04:00 10,4 C 97 % 1009,5 hPa 0,0 l/m 13,1 km/h (3 Bft) S-SW 0,00 h 0 W/m 10,0 C 6,5 C 22,3 km/h (4 Bft)
22.10.2015 05:00 10,6 C 98 % 1009,2 hPa 0,0 l/m 13,5 km/h (3 Bft) SW 0,00 h 0 W/m 10,2 C 6,5 C 21,8 km/h (4 Bft)
22.10.2015 06:00 10,6 C 98 % 1008,7 hPa 0,0 l/m 13,8 km/h (3 Bft) S-SW 0,00 h 0 W/m 10,3 C 6,5 C 22,9 km/h (4 Bft)
22.10.2015 07:00 10,8 C 97 % 1008,6 hPa 0,2 l/m 14,9 km/h (3 Bft) SW 0,00 h 0 W/m 10,3 C 6,1 C 24,0 km/h (4 Bft)
22.10.2015 08:00 10,8 C 98 % 1008,5 hPa 0,0 l/m 14,2 km/h (3 Bft) SW 0,00 h 10 W/m 10,4 C 6,5 C 22,8 km/h (4 Bft)
22.10.2015 09:00 11,0 C 98 % 1008,5 hPa 0,4 l/m 14,0 km/h (3 Bft) SW 0,00 h 28 W/m 10,7 C 6,8 C 22,7 km/h (4 Bft)
22.10.2015 10:00 11,3 C 98 % 1008,4 hPa 0,2 l/m 15,1 km/h (3 Bft) SW 0,00 h 49 W/m 11,0 C 6,6 C 24,2 km/h (4 Bft)
22.10.2015 11:00 11,6 C 98 % 1008,4 hPa 0,4 l/m 16,5 km/h (3 Bft) SW 0,00 h 80 W/m 11,3 C 6,6 C 27,8 km/h (5 Bft)
22.10.2015 12:00 12,1 C 98 % 1008,3 hPa 0,0 l/m 17,9 km/h (3 Bft) SW 0,00 h 76 W/m 11,8 C 6,7 C 28,7 km/h (5 Bft)
22.10.2015 13:00 12,3 C 98 % 1008,2 hPa 0,0 l/m 17,9 km/h (3 Bft) SW 0,00 h 60 W/m 12,0 C 6,9 C 29,0 km/h (5 Bft)
22.10.2015 14:00 12,8 C 98 % 1008,4 hPa 0,0 l/m 15,5 km/h (3 Bft) SW 0,00 h 76 W/m 12,5 C 8,4 C 26,4 km/h (4 Bft)
22.10.2015 15:00 13,1 C 95 % 1008,5 hPa 0,0 l/m 12,3 km/h (2 Bft) W-SW 0,00 h 85 W/m 12,3 C 10,0 C 21,6 km/h (4 Bft)
22.10.2015 16:00 13,2 C 94 % 1009,0 hPa 0,0 l/m 11,3 km/h (2 Bft) W-SW 0,00 h 41 W/m 12,2 C 10,5 C 20,2 km/h (4 Bft)
22.10.2015 17:00 12,9 C 92 % 1009,8 hPa 0,0 l/m 12,9 km/h (3 Bft) W 0,00 h 11 W/m 11,6 C 9,5 C 22,2 km/h (4 Bft)
22.10.2015 18:00 12,8 C 88 % 1010,8 hPa 0,0 l/m 12,7 km/h (3 Bft) W 0,00 h 0 W/m 10,8 C 9,5 C 23,3 km/h (4 Bft)
22.10.2015 19:00 12,2 C 89 % 1011,6 hPa 0,2 l/m 13,0 km/h (3 Bft) W-SW 0,00 h 0 W/m 10,5 C 8,7 C 24,5 km/h (4 Bft)
22.10.2015 20:00 12,5 C 88 % 1012,1 hPa 0,0 l/m 12,1 km/h (2 Bft) W 0,00 h 0 W/m 10,6 C 9,4 C 22,9 km/h (4 Bft)
22.10.2015 21:00 12,6 C 87 % 1013,0 hPa 0,2 l/m 10,7 km/h (2 Bft) W 0,00 h 0 W/m 10,4 C 10,1 C 21,1 km/h (4 Bft)
22.10.2015 22:00 12,6 C 86 % 1013,7 hPa 0,0 l/m 11,4 km/h (2 Bft) W 0,00 h 0 W/m 10,3 C 9,8 C 21,1 km/h (4 Bft)
22.10.2015 23:00 12,4 C 87 % 1014,4 hPa 0,0 l/m 9,2 km/h (2 Bft) W 0,00 h 0 W/m 10,2 C 10,7 C 18,0 km/h (3 Bft)
23.10.2015 00:00 12,1 C 87 % 1014,9 hPa 0,0 l/m 9,5 km/h (2 Bft) W-NW 0,00 h 0 W/m 10,0 C 10,2 C 18,3 km/h (3 Bft)
23.10.2015 01:00 12,2 C 86 % 1015,2 hPa 0,0 l/m 9,0 km/h (2 Bft) W 0,00 h 0 W/m 10,0 C 10,7 C 18,2 km/h (3 Bft)
23.10.2015 02:00 11,8 C 84 % 1015,8 hPa 0,0 l/m 8,5 km/h (2 Bft) W 0,00 h 0 W/m 9,3 C 10,5 C 16,8 km/h (3 Bft)
23.10.2015 03:00 11,5 C 87 % 1016,5 hPa 0,0 l/m 8,1 km/h (2 Bft) W 0,00 h 0 W/m 9,3 C 10,4 C 15,6 km/h (3 Bft)
23.10.2015 04:00 11,6 C 88 % 1017,2 hPa 0,0 l/m 8,0 km/h (2 Bft) W 0,00 h 0 W/m 9,7 C 10,5 C 15,4 km/h (3 Bft)
23.10.2015 05:00 11,5 C 89 % 1017,8 hPa 0,0 l/m 7,3 km/h (2 Bft) W 0,00 h 0 W/m 9,7 C 10,9 C 14,8 km/h (3 Bft)
23.10.2015 06:00 11,8 C 88 % 1018,5 hPa 0,0 l/m 7,2 km/h (2 Bft) W-SW 0,00 h 0 W/m 9,9 C 11,0 C 13,4 km/h (3 Bft)
23.10.2015 07:00 10,8 C 93 % 1019,1 hPa 0,0 l/m 8,2 km/h (2 Bft) W-SW 0,00 h 0 W/m 9,6 C 9,5 C 14,9 km/h (3 Bft)
23.10.2015 08:00 10,8 C 92 % 1019,5 hPa 0,0 l/m 9,7 km/h (2 Bft) W-SW 0,05 h 16 W/m 9,6 C 8,7 C 16,7 km/h (3 Bft)
23.10.2015 09:00 11,0 C 92 % 1020,0 hPa 0,0 l/m 9,6 km/h (2 Bft) SW 0,05 h 43 W/m 9,8 C 8,9 C 18,8 km/h (3 Bft)
23.10.2015 10:00 11,6 C 91 % 1020,6 hPa 0,0 l/m 9,6 km/h (2 Bft) W 0,00 h 65 W/m 10,2 C 9,6 C 17,9 km/h (3 Bft)
23.10.2015 11:00 12,4 C 90 % 1020,8 hPa 0,0 l/m 10,9 km/h (2 Bft) W-SW 0,85 h 218 W/m 10,8 C 9,8 C 20,3 km/h (4 Bft)
23.10.2015 12:00 13,5 C 86 % 1020,8 hPa 0,0 l/m 12,8 km/h (3 Bft) SW 1,00 h 286 W/m 11,2 C 10,3 C 22,1 km/h (4 Bft)
23.10.2015 13:00 13,3 C 86 % 1021,0 hPa 0,0 l/m 11,6 km/h (2 Bft) SW 0,00 h 149 W/m 11,0 C 10,5 C 20,9 km/h (4 Bft)
23.10.2015 14:00 14,1 C 82 % 1020,9 hPa 0,0 l/m 11,5 km/h (2 Bft) W-SW 0,75 h 244 W/m 11,1 C 11,5 C 20,8 km/h (4 Bft)
23.10.2015 15:00 13,8 C 78 % 1021,1 hPa 0,0 l/m 9,8 km/h (2 Bft) W 0,65 h 170 W/m 10,0 C 11,9 C 18,5 km/h (3 Bft)
23.10.2015 16:00 13,2 C 78 % 1021,1 hPa 0,0 l/m 7,7 km/h (2 Bft) W-SW 0,05 h 57 W/m 9,4 C 12,4 C 14,8 km/h (3 Bft)
23.10.2015 17:00 12,7 C 82 % 1021,1 hPa 0,0 l/m 5,4 km/h (1 Bft) SW 0,00 h 17 W/m 9,7 C 12,5 C 9,9 km/h (2 Bft)
23.10.2015 18:00 12,3 C 87 % 1021,2 hPa 0,0 l/m 3,7 km/h (1 Bft) SW 0,00 h 0 W/m 10,1 C 12,3 C 6,5 km/h (2 Bft)
23.10.2015 19:00 12,0 C 87 % 1021,2 hPa 0,0 l/m 3,5 km/h (1 Bft) SW 0,00 h 0 W/m 9,9 C 12,0 C 5,8 km/h (2 Bft)
23.10.2015 20:00 11,7 C 84 % 1021,2 hPa 0,0 l/m 3,4 km/h (1 Bft) S-SW 0,00 h 0 W/m 9,0 C 11,7 C 6,2 km/h (2 Bft)
23.10.2015 21:00 11,1 C 88 % 1021,0 hPa 0,0 l/m 1,4 km/h (1 Bft) S-SW 0,00 h 0 W/m 9,1 C 11,1 C 3,1 km/h (1 Bft)
23.10.2015 22:00 10,9 C 87 % 1021,1 hPa 0,0 l/m 3,0 km/h (1 Bft) S-SO 0,00 h 0 W/m 8,9 C 10,9 C 6,2 km/h (2 Bft)
23.10.2015 23:00 10,9 C 86 % 1020,9 hPa 0,0 l/m 3,9 km/h (1 Bft) S 0,00 h 0 W/m 8,7 C 10,9 C 6,9 km/h (2 Bft)
24.10.2015 00:00 10,7 C 87 % 1020,5 hPa 0,0 l/m 3,3 km/h (1 Bft) S 0,00 h 0 W/m 8,6 C 10,7 C 6,4 km/h (2 Bft)
24.10.2015 01:00 10,5 C 87 % 1020,1 hPa 0,0 l/m 2,7 km/h (1 Bft) S-SO 0,00 h 0 W/m 8,5 C 10,5 C 5,9 km/h (2 Bft)
24.10.2015 02:00 10,3 C 88 % 1019,9 hPa 0,0 l/m 2,6 km/h (1 Bft) S-SO 0,00 h 0 W/m 8,4 C 10,3 C 6,2 km/h (2 Bft)
24.10.2015 03:00 10,2 C 88 % 1019,6 hPa 0,0 l/m 2,7 km/h (1 Bft) S-SO 0,00 h 0 W/m 8,4 C 10,2 C 5,4 km/h (1 Bft)
24.10.2015 04:00 10,0 C 89 % 1018,9 hPa 0,0 l/m 3,2 km/h (1 Bft) SO 0,00 h 0 W/m 8,3 C 10,0 C 6,4 km/h (2 Bft)
24.10.2015 05:00 9,9 C 90 % 1018,1 hPa 0,0 l/m 5,1 km/h (1 Bft) SO 0,00 h 0 W/m 8,3 C 9,9 C 9,6 km/h (2 Bft)
24.10.2015 06:00 9,8 C 91 % 1017,6 hPa 0,0 l/m 5,6 km/h (2 Bft) SO 0,00 h 0 W/m 8,4 C 9,8 C 10,7 km/h (2 Bft)
24.10.2015 07:00 9,7 C 91 % 1017,3 hPa 0,0 l/m 5,6 km/h (2 Bft) S-SO 0,00 h 0 W/m 8,3 C 9,7 C 10,5 km/h (2 Bft)
24.10.2015 08:00 9,7 C 90 % 1017,2 hPa 0,0 l/m 6,6 km/h (2 Bft) S-SO 0,00 h 8 W/m 8,1 C 9,4 C 12,6 km/h (2 Bft)
24.10.2015 09:00 9,8 C 89 % 1017,1 hPa 0,0 l/m 7,5 km/h (2 Bft) S-SO 0,00 h 26 W/m 8,1 C 8,9 C 13,8 km/h (3 Bft)
24.10.2015 10:00 10,5 C 87 % 1016,7 hPa 0,0 l/m 5,6 km/h (2 Bft) SO 0,00 h 78 W/m 8,5 C 10,4 C 10,9 km/h (2 Bft)
24.10.2015 11:00 11,5 C 84 % 1016,2 hPa 0,0 l/m 6,2 km/h (2 Bft) S-SO 0,00 h 110 W/m 8,9 C 11,3 C 12,3 km/h (2 Bft)
24.10.2015 12:00 12,2 C 81 % 1015,8 hPa 0,0 l/m 7,0 km/h (2 Bft) S 0,00 h 116 W/m 9,0 C 11,7 C 14,3 km/h (3 Bft)
24.10.2015 13:00 12,5 C 79 % 1015,1 hPa 0,0 l/m 6,7 km/h (2 Bft) S 0,00 h 90 W/m 9,0 C 12,2 C 13,0 km/h (3 Bft)
24.10.2015 14:00 12,4 C 80 % 1014,6 hPa 0,0 l/m 7,3 km/h (2 Bft) S 0,00 h 84 W/m 9,1 C 11,8 C 14,7 km/h (3 Bft)
24.10.2015 15:00 12,3 C 81 % 1014,2 hPa 0,0 l/m 7,0 km/h (2 Bft) S 0,00 h 52 W/m 9,1 C 11,8 C 12,9 km/h (3 Bft)
24.10.2015 16:00 11,9 C 82 % 1014,0 hPa 0,0 l/m 5,6 km/h (2 Bft) S 0,00 h 21 W/m 9,0 C 11,9 C 10,2 km/h (2 Bft)
24.10.2015 17:00 11,5 C 84 % 1013,9 hPa 0,0 l/m 4,8 km/h (1 Bft) S 0,00 h 11 W/m 9,0 C 11,6 C 9,5 km/h (2 Bft)
24.10.2015 18:00 11,1 C 86 % 1013,9 hPa 0,0 l/m 5,0 km/h (1 Bft) S 0,00 h 0 W/m 8,9 C 11,1 C 9,4 km/h (2 Bft)
24.10.2015 19:00 10,9 C 87 % 1013,8 hPa 0,0 l/m 6,0 km/h (2 Bft) S 0,00 h 0 W/m 8,8 C 10,9 C 11,1 km/h (2 Bft)
24.10.2015 20:00 10,9 C 88 % 1013,9 hPa 0,0 l/m 6,2 km/h (2 Bft) S-SW 0,00 h 0 W/m 8,9 C 10,8 C 12,0 km/h (2 Bft)
24.10.2015 21:00 10,9 C 88 % 1014,0 hPa 0,0 l/m 8,4 km/h (2 Bft) S-SW 0,00 h 0 W/m 9,0 C 9,5 C 14,9 km/h (3 Bft)
24.10.2015 22:00 11,1 C 88 % 1014,2 hPa 0,0 l/m 11,0 km/h (2 Bft) SW 0,00 h 0 W/m 9,3 C 8,3 C 19,1 km/h (3 Bft)
24.10.2015 23:00 11,1 C 90 % 1014,1 hPa 0,0 l/m 10,5 km/h (2 Bft) S-SW 0,00 h 0 W/m 9,4 C 8,6 C 17,1 km/h (3 Bft)
25.10.2015 00:00 11,2 C 90 % 1014,2 hPa 0,0 l/m 13,0 km/h (3 Bft) SW 0,00 h 0 W/m 9,6 C 7,5 C 20,9 km/h (4 Bft)
25.10.2015 01:00 11,4 C 89 % 1014,2 hPa 0,0 l/m 12,1 km/h (2 Bft) SW 0,00 h 0 W/m 9,7 C 8,1 C 19,3 km/h (3 Bft)
25.10.2015 02:00 11,6 C 90 % 1014,6 hPa 0,0 l/m 14,5 km/h (3 Bft) SW 0,00 h 0 W/m 10,0 C 7,2 C 22,5 km/h (4 Bft)
25.10.2015 03:00 11,4 C 94 % 1015,3 hPa 0,2 l/m 8,2 km/h (2 Bft) W-NW 0,00 h 0 W/m 10,4 C 9,7 C 14,7 km/h (3 Bft)
25.10.2015 04:00 10,9 C 96 % 1016,1 hPa 0,2 l/m 2,4 km/h (1 Bft) W 0,00 h 0 W/m 10,4 C 10,9 C 3,8 km/h (1 Bft)
25.10.2015 05:00 10,9 C 97 % 1016,9 hPa 0,4 l/m 5,8 km/h (2 Bft) W 0,00 h 0 W/m 10,4 C 10,2 C 10,9 km/h (2 Bft)
25.10.2015 06:00 10,1 C 97 % 1017,5 hPa 0,0 l/m 1,5 km/h (1 Bft) NW 0,00 h 0 W/m 9,7 C 10,1 C 3,5 km/h (1 Bft)
25.10.2015 07:00 9,2 C 97 % 1018,5 hPa 0,0 l/m 3,1 km/h (1 Bft) W 0,00 h 10 W/m 8,7 C 9,2 C 6,9 km/h (2 Bft)
25.10.2015 08:00 10,4 C 93 % 1019,5 hPa 0,0 l/m 4,6 km/h (1 Bft) W 0,35 h 28 W/m 9,3 C 10,4 C 10,3 km/h (2 Bft)
25.10.2015 09:00 11,7 C 87 % 1020,3 hPa 0,0 l/m 6,8 km/h (2 Bft) W 0,25 h 71 W/m 9,6 C 11,4 C 14,3 km/h (3 Bft)
25.10.2015 10:00 12,4 C 83 % 1021,1 hPa 0,0 l/m 8,1 km/h (2 Bft) W 0,45 h 147 W/m 9,5 C 11,3 C 15,9 km/h (3 Bft)
25.10.2015 11:00 13,9 C 75 % 1021,8 hPa 0,0 l/m 8,0 km/h (2 Bft) W 0,95 h 278 W/m 9,5 C 12,8 C 16,7 km/h (3 Bft)
25.10.2015 12:00 14,3 C 71 % 1022,3 hPa 0,0 l/m 8,3 km/h (2 Bft) W 0,95 h 336 W/m 9,0 C 13,1 C 17,5 km/h (3 Bft)
25.10.2015 13:00 14,3 C 69 % 1022,9 hPa 0,0 l/m 9,2 km/h (2 Bft) W-NW 0,95 h 302 W/m 8,6 C 12,7 C 17,9 km/h (3 Bft)
25.10.2015 14:00 13,7 C 69 % 1023,3 hPa 0,0 l/m 7,6 km/h (2 Bft) W 0,35 h 166 W/m 8,2 C 12,8 C 15,5 km/h (3 Bft)
25.10.2015 15:00 12,8 C 75 % 1023,7 hPa 0,0 l/m 5,8 km/h (2 Bft) W 0,00 h 65 W/m 8,4 C 12,6 C 13,1 km/h (3 Bft)
25.10.2015 16:00 11,9 C 79 % 1023,9 hPa 0,0 l/m 3,5 km/h (1 Bft) W-NW 0,00 h 17 W/m 8,3 C 11,9 C 8,1 km/h (2 Bft)
25.10.2015 17:00 11,2 C 80 % 1024,4 hPa 0,0 l/m 2,3 km/h (1 Bft) W 0,00 h 0 W/m 7,9 C 11,2 C 5,1 km/h (1 Bft)
25.10.2015 18:00 8,9 C 90 % 1025,0 hPa 0,0 l/m 1,0 km/h (0 Bft) W 0,00 h 0 W/m 7,3 C 8,9 C 2,2 km/h (1 Bft)
25.10.2015 19:00 8,9 C 91 % 1025,1 hPa 0,0 l/m 0,2 km/h (0 Bft) W 0,00 h 0 W/m 7,5 C 8,9 C 1,2 km/h (1 Bft)
25.10.2015 20:00 8,4 C 94 % 1025,2 hPa 0,0 l/m 1,9 km/h (1 Bft) W-SW 0,00 h 0 W/m 7,5 C 8,4 C 3,2 km/h (1 Bft)
25.10.2015 21:00 8,3 C 95 % 1025,5 hPa 0,0 l/m 1,9 km/h (1 Bft) W-SW 0,00 h 0 W/m 7,5 C 8,3 C 3,4 km/h (1 Bft)
25.10.2015 22:00 7,4 C 95 % 1025,6 hPa 0,0 l/m 1,2 km/h (1 Bft) W-SW 0,00 h 0 W/m 6,7 C 7,4 C 2,5 km/h (1 Bft)
25.10.2015 23:00 6,7 C 96 % 1025,4 hPa 0,0 l/m 1,2 km/h (1 Bft) W-SW 0,00 h 0 W/m 6,1 C 6,7 C 2,3 km/h (1 Bft)
Min-Datum _ 20.10.15 25.10.15 22.10.15 - 19.10.15 - - - 20.10.15 20.10.15 19.10.15
_ Min-Zeit 08:51 13:36 13:45 - 18:12 - - - 08:51 08:51 18:12
Minimum _ 3,4 C 65 % 1008,1 hPa - 0,0 km/h (0 Bft) - - - 3,3 C 3,4 C 0,0 km/h (0 Bft)
Max-Datum _ 23.10.15 19.10.15 25.10.15 22.10.15 22.10.15 - 19.10.15 25.10.15 22.10.15 25.10.15 22.10.15
_ Max-Zeit 14:27 00:00 21:48 09:03 11:00 - 08:27 12:42 15:09 12:54 11:00
Maximum _ 14,7 C 99 % 1025,7 hPa 0,4 l/m 19,6 km/h
SW (3 Bft)
- 0,05 h 410 W/m 12,7 C 14,5 C 35,4 km/h
SW (5 Bft)
Durchschnitt _ 10,4 C 91 % 1017,9 hPa #2,8 l/m 6,3 km/h (2 Bft) SW #11:48 h 93 W/m 9,0 C 9,3 C 11,8 km/h (2 Bft)
copyright by Holger Just